sensor_id;sensor_type;location;lat;lon;timestamp;pressure;altitude;pressure_sealevel;temperature;humidity
11676;BME280;5894;42.768;23.404;2023-04-03T00:01:32;94951.16;;;6.89;100.00
11676;BME280;5894;42.768;23.404;2023-04-03T00:04:00;95003.34;;;7.41;100.00
11676;BME280;5894;42.768;23.404;2023-04-03T00:06:27;95018.41;;;7.49;100.00
11676;BME280;5894;42.768;23.404;2023-04-03T00:08:54;95031.78;;;7.61;100.00
11676;BME280;5894;42.768;23.404;2023-04-03T00:11:22;95029.47;;;7.59;100.00
11676;BME280;5894;42.768;23.404;2023-04-03T00:13:49;95035.94;;;7.76;100.00
11676;BME280;5894;42.768;23.404;2023-04-03T00:16:16;95039.16;;;7.72;100.00
11676;BME280;5894;42.768;23.404;2023-04-03T00:18:43;95009.06;;;7.56;100.00
11676;BME280;5894;42.768;23.404;2023-04-03T00:21:12;95017.19;;;7.68;100.00
11676;BME280;5894;42.768;23.404;2023-04-03T00:23:39;95021.84;;;7.71;100.00
11676;BME280;5894;42.768;23.404;2023-04-03T00:26:06;95024.47;;;7.71;100.00
11676;BME280;5894;42.768;23.404;2023-04-03T00:28:34;95018.78;;;7.56;100.00
11676;BME280;5894;42.768;23.404;2023-04-03T00:31:01;94978.81;;;7.09;100.00
11676;BME280;5894;42.768;23.404;2023-04-03T00:33:28;95027.16;;;7.17;100.00
11676;BME280;5894;42.768;23.404;2023-04-03T00:35:55;95031.75;;;7.11;100.00
11676;BME280;5894;42.768;23.404;2023-04-03T00:38:22;95000.97;;;6.62;100.00
11676;BME280;5894;42.768;23.404;2023-04-03T00:40:49;95006.66;;;6.50;100.00
11676;BME280;5894;42.768;23.404;2023-04-03T00:43:18;95020.47;;;6.70;100.00
11676;BME280;5894;42.768;23.404;2023-04-03T00:45:48;95035.63;;;6.73;100.00
11676;BME280;5894;42.768;23.404;2023-04-03T00:48:18;95032.09;;;6.77;100.00
11676;BME280;5894;42.768;23.404;2023-04-03T00:50:47;94981.31;;;6.46;100.00
11676;BME280;5894;42.768;23.404;2023-04-03T00:53:18;94984.44;;;6.48;100.00
11676;BME280;5894;42.768;23.404;2023-04-03T00:55:47;95031.28;;;6.95;100.00
11676;BME280;5894;42.768;23.404;2023-04-03T00:58:15;95012.53;;;6.75;100.00
11676;BME280;5894;42.768;23.404;2023-04-03T01:00:50;95015.69;;;6.58;100.00
11676;BME280;5894;42.768;23.404;2023-04-03T01:03:21;95036.66;;;6.58;100.00
11676;BME280;5894;42.768;23.404;2023-04-03T01:05:49;95039.31;;;6.39;100.00
11676;BME280;5894;42.768;23.404;2023-04-03T01:08:16;95040.72;;;6.18;100.00
11676;BME280;5894;42.768;23.404;2023-04-03T01:10:43;94968.56;;;5.74;100.00
11676;BME280;5894;42.768;23.404;2023-04-03T01:13:23;95016.59;;;6.21;100.00
11676;BME280;5894;42.768;23.404;2023-04-03T01:15:53;95018.81;;;6.28;100.00
11676;BME280;5894;42.768;23.404;2023-04-03T01:18:20;94995.81;;;6.11;100.00
11676;BME280;5894;42.768;23.404;2023-04-03T01:24:20;95043.63;;;6.49;100.00
11676;BME280;5894;42.768;23.404;2023-04-03T01:26:50;95046.06;;;6.59;100.00
11676;BME280;5894;42.768;23.404;2023-04-03T01:29:17;95052.28;;;6.63;100.00
11676;BME280;5894;42.768;23.404;2023-04-03T01:31:48;95005.06;;;6.36;100.00
11676;BME280;5894;42.768;23.404;2023-04-03T01:34:16;95048.59;;;6.64;100.00
11676;BME280;5894;42.768;23.404;2023-04-03T01:36:43;95033.25;;;6.57;100.00
11676;BME280;5894;42.768;23.404;2023-04-03T01:39:10;95050.06;;;6.70;100.00
11676;BME280;5894;42.768;23.404;2023-04-03T01:41:37;95050.13;;;6.65;100.00
11676;BME280;5894;42.768;23.404;2023-04-03T01:44:12;95049.84;;;6.53;100.00
11676;BME280;5894;42.768;23.404;2023-04-03T01:46:39;95045.06;;;6.41;100.00
11676;BME280;5894;42.768;23.404;2023-04-03T01:49:08;95051.13;;;6.37;100.00
11676;BME280;5894;42.768;23.404;2023-04-03T01:51:35;95042.16;;;6.43;100.00
11676;BME280;5894;42.768;23.404;2023-04-03T01:54:02;95031.53;;;6.34;100.00
11676;BME280;5894;42.768;23.404;2023-04-03T01:56:29;95050.84;;;6.38;100.00
11676;BME280;5894;42.768;23.404;2023-04-03T01:58:56;95027.84;;;6.21;100.00
11676;BME280;5894;42.768;23.404;2023-04-03T02:01:23;95029.06;;;6.24;100.00
11676;BME280;5894;42.768;23.404;2023-04-03T02:03:51;95027.84;;;6.35;100.00
11676;BME280;5894;42.768;23.404;2023-04-03T02:06:19;95039.66;;;6.19;100.00
11676;BME280;5894;42.768;23.404;2023-04-03T02:08:46;95050.91;;;6.19;100.00
11676;BME280;5894;42.768;23.404;2023-04-03T02:11:13;95039.16;;;6.17;100.00
11676;BME280;5894;42.768;23.404;2023-04-03T02:13:40;95039.69;;;6.33;100.00
11676;BME280;5894;42.768;23.404;2023-04-03T02:16:08;95001.59;;;6.08;100.00
11676;BME280;5894;42.768;23.404;2023-04-03T02:18:35;95001.09;;;6.06;100.00
11676;BME280;5894;42.768;23.404;2023-04-03T02:21:03;95046.28;;;6.30;100.00
11676;BME280;5894;42.768;23.404;2023-04-03T02:23:31;95042.78;;;6.35;100.00
11676;BME280;5894;42.768;23.404;2023-04-03T02:26:06;95028.78;;;6.25;100.00
11676;BME280;5894;42.768;23.404;2023-04-03T02:28:34;95037.97;;;6.42;100.00
11676;BME280;5894;42.768;23.404;2023-04-03T02:31:01;95011.84;;;6.37;100.00
11676;BME280;5894;42.768;23.404;2023-04-03T02:33:29;95019.44;;;6.38;100.00
11676;BME280;5894;42.768;23.404;2023-04-03T02:35:57;95019.22;;;6.35;100.00
11676;BME280;5894;42.768;23.404;2023-04-03T02:38:25;95011.47;;;6.30;100.00
11676;BME280;5894;42.768;23.404;2023-04-03T02:40:59;95007.06;;;6.25;100.00
11676;BME280;5894;42.768;23.404;2023-04-03T02:43:26;95010.84;;;6.19;100.00
11676;BME280;5894;42.768;23.404;2023-04-03T02:45:53;95010.06;;;6.18;100.00
11676;BME280;5894;42.768;23.404;2023-04-03T02:48:20;95023.16;;;6.18;100.00
11676;BME280;5894;42.768;23.404;2023-04-03T02:50:47;95031.16;;;6.08;100.00
11676;BME280;5894;42.768;23.404;2023-04-03T02:53:14;95023.53;;;5.93;100.00
11676;BME280;5894;42.768;23.404;2023-04-03T02:55:42;95028.63;;;6.03;100.00
11676;BME280;5894;42.768;23.404;2023-04-03T02:58:10;95023.38;;;6.03;100.00
11676;BME280;5894;42.768;23.404;2023-04-03T03:00:37;95015.78;;;5.88;100.00
11676;BME280;5894;42.768;23.404;2023-04-03T03:03:04;95014.63;;;5.94;100.00
11676;BME280;5894;42.768;23.404;2023-04-03T03:05:32;95014.72;;;5.89;100.00
11676;BME280;5894;42.768;23.404;2023-04-03T03:07:59;95019.22;;;6.02;100.00
11676;BME280;5894;42.768;23.404;2023-04-03T03:10:26;95036.25;;;5.81;100.00
11676;BME280;5894;42.768;23.404;2023-04-03T03:12:53;95035.41;;;5.48;100.00
11676;BME280;5894;42.768;23.404;2023-04-03T03:15:21;95013.84;;;5.13;100.00
11676;BME280;5894;42.768;23.404;2023-04-03T03:17:48;95022.19;;;4.92;100.00
11676;BME280;5894;42.768;23.404;2023-04-03T03:20:14;95020.75;;;5.04;100.00
11676;BME280;5894;42.768;23.404;2023-04-03T03:22:42;95002.03;;;4.97;100.00
11676;BME280;5894;42.768;23.404;2023-04-03T03:25:08;95021.66;;;4.95;100.00
11676;BME280;5894;42.768;23.404;2023-04-03T03:27:36;95018.38;;;4.84;100.00
11676;BME280;5894;42.768;23.404;2023-04-03T03:30:04;94959.34;;;4.35;100.00
11676;BME280;5894;42.768;23.404;2023-04-03T03:32:33;95024.53;;;4.69;100.00
11676;BME280;5894;42.768;23.404;2023-04-03T03:35:01;94984.50;;;4.50;100.00
11676;BME280;5894;42.768;23.404;2023-04-03T03:37:27;95017.47;;;4.70;100.00
11676;BME280;5894;42.768;23.404;2023-04-03T03:39:55;95008.53;;;4.47;100.00
11676;BME280;5894;42.768;23.404;2023-04-03T03:42:22;95021.47;;;4.62;100.00
11676;BME280;5894;42.768;23.404;2023-04-03T03:44:49;95012.03;;;4.66;100.00
11676;BME280;5894;42.768;23.404;2023-04-03T03:47:18;94991.91;;;4.67;100.00
11676;BME280;5894;42.768;23.404;2023-04-03T03:49:47;95032.03;;;5.00;100.00
11676;BME280;5894;42.768;23.404;2023-04-03T03:52:15;95029.31;;;5.10;100.00
11676;BME280;5894;42.768;23.404;2023-04-03T03:54:42;95021.41;;;5.15;100.00
11676;BME280;5894;42.768;23.404;2023-04-03T03:57:10;95009.03;;;5.02;100.00
11676;BME280;5894;42.768;23.404;2023-04-03T03:59:37;95021.03;;;5.27;100.00
11676;BME280;5894;42.768;23.404;2023-04-03T04:02:06;95019.09;;;5.32;100.00
11676;BME280;5894;42.768;23.404;2023-04-03T04:04:33;95023.38;;;5.47;100.00
11676;BME280;5894;42.768;23.404;2023-04-03T04:07:01;94991.22;;;5.28;100.00
11676;BME280;5894;42.768;23.404;2023-04-03T04:09:29;94980.75;;;5.28;100.00
11676;BME280;5894;42.768;23.404;2023-04-03T04:11:56;95014.97;;;5.50;100.00
11676;BME280;5894;42.768;23.404;2023-04-03T04:14:23;95014.75;;;5.46;100.00
11676;BME280;5894;42.768;23.404;2023-04-03T04:16:51;95012.78;;;5.38;100.00
11676;BME280;5894;42.768;23.404;2023-04-03T04:19:22;94998.34;;;5.41;100.00
11676;BME280;5894;42.768;23.404;2023-04-03T04:21:50;95018.44;;;5.45;100.00
11676;BME280;5894;42.768;23.404;2023-04-03T04:24:19;95031.22;;;5.47;100.00
11676;BME280;5894;42.768;23.404;2023-04-03T04:26:47;95013.47;;;5.25;100.00
11676;BME280;5894;42.768;23.404;2023-04-03T04:29:16;95041.22;;;5.40;100.00
11676;BME280;5894;42.768;23.404;2023-04-03T04:31:46;95045.13;;;5.42;100.00
11676;BME280;5894;42.768;23.404;2023-04-03T04:34:13;95047.69;;;5.47;100.00
11676;BME280;5894;42.768;23.404;2023-04-03T04:36:41;95015.16;;;5.35;100.00
11676;BME280;5894;42.768;23.404;2023-04-03T04:39:09;95026.28;;;5.45;100.00
11676;BME280;5894;42.768;23.404;2023-04-03T04:41:37;95026.69;;;5.52;100.00
11676;BME280;5894;42.768;23.404;2023-04-03T04:44:05;95041.41;;;5.67;100.00
11676;BME280;5894;42.768;23.404;2023-04-03T04:46:33;95052.84;;;5.71;100.00
11676;BME280;5894;42.768;23.404;2023-04-03T04:49:01;95057.47;;;5.79;100.00
11676;BME280;5894;42.768;23.404;2023-04-03T04:51:29;95047.47;;;5.81;100.00
11676;BME280;5894;42.768;23.404;2023-04-03T04:53:57;95048.09;;;5.97;100.00
11676;BME280;5894;42.768;23.404;2023-04-03T04:56:24;95062.59;;;5.89;100.00
11676;BME280;5894;42.768;23.404;2023-04-03T04:58:54;95054.22;;;5.87;100.00
11676;BME280;5894;42.768;23.404;2023-04-03T05:01:22;95069.94;;;6.06;100.00
11676;BME280;5894;42.768;23.404;2023-04-03T05:03:56;95042.56;;;5.80;100.00
11676;BME280;5894;42.768;23.404;2023-04-03T05:06:24;95072.13;;;5.99;100.00
11676;BME280;5894;42.768;23.404;2023-04-03T05:08:52;95044.88;;;5.81;100.00
11676;BME280;5894;42.768;23.404;2023-04-03T05:11:19;95075.72;;;6.03;100.00
11676;BME280;5894;42.768;23.404;2023-04-03T05:13:49;95072.63;;;6.01;100.00
11676;BME280;5894;42.768;23.404;2023-04-03T05:16:18;95064.19;;;6.04;100.00
11676;BME280;5894;42.768;23.404;2023-04-03T05:18:45;95077.41;;;6.13;100.00
11676;BME280;5894;42.768;23.404;2023-04-03T05:21:17;95076.06;;;6.15;100.00
11676;BME280;5894;42.768;23.404;2023-04-03T05:23:46;95063.84;;;6.11;100.00
11676;BME280;5894;42.768;23.404;2023-04-03T05:26:13;95055.56;;;6.04;100.00
11676;BME280;5894;42.768;23.404;2023-04-03T05:28:41;95060.09;;;6.17;100.00
11676;BME280;5894;42.768;23.404;2023-04-03T05:31:10;95056.56;;;6.08;100.00
11676;BME280;5894;42.768;23.404;2023-04-03T05:33:39;95099.47;;;6.44;100.00
11676;BME280;5894;42.768;23.404;2023-04-03T05:36:08;95091.69;;;6.39;100.00
11676;BME280;5894;42.768;23.404;2023-04-03T05:38:42;95089.13;;;6.53;100.00
11676;BME280;5894;42.768;23.404;2023-04-03T05:41:09;95071.75;;;6.43;100.00
11676;BME280;5894;42.768;23.404;2023-04-03T05:43:36;95091.66;;;6.58;100.00
11676;BME280;5894;42.768;23.404;2023-04-03T05:46:10;95082.25;;;6.57;100.00
11676;BME280;5894;42.768;23.404;2023-04-03T05:48:40;95080.16;;;6.73;100.00
11676;BME280;5894;42.768;23.404;2023-04-03T05:51:15;95072.19;;;6.78;100.00
11676;BME280;5894;42.768;23.404;2023-04-03T05:53:43;95084.91;;;6.71;100.00
11676;BME280;5894;42.768;23.404;2023-04-03T05:56:11;95063.41;;;6.55;100.00
11676;BME280;5894;42.768;23.404;2023-04-03T05:58:39;95075.25;;;6.52;100.00
11676;BME280;5894;42.768;23.404;2023-04-03T06:01:06;95074.75;;;6.50;100.00
11676;BME280;5894;42.768;23.404;2023-04-03T06:03:34;95073.28;;;6.44;100.00
11676;BME280;5894;42.768;23.404;2023-04-03T06:06:04;95076.06;;;6.34;100.00
11676;BME280;5894;42.768;23.404;2023-04-03T06:08:31;95072.88;;;6.37;100.00
11676;BME280;5894;42.768;23.404;2023-04-03T06:10:58;94959.44;;;5.72;100.00
11676;BME280;5894;42.768;23.404;2023-04-03T06:13:26;95054.47;;;6.42;100.00
11676;BME280;5894;42.768;23.404;2023-04-03T06:15:53;95066.03;;;6.55;100.00
11676;BME280;5894;42.768;23.404;2023-04-03T06:18:21;95045.56;;;6.57;100.00
11676;BME280;5894;42.768;23.404;2023-04-03T06:20:48;95036.19;;;6.70;100.00
11676;BME280;5894;42.768;23.404;2023-04-03T06:23:17;95019.47;;;6.66;100.00
11676;BME280;5894;42.768;23.404;2023-04-03T06:25:43;95030.47;;;6.81;100.00
11676;BME280;5894;42.768;23.404;2023-04-03T06:28:10;94985.72;;;6.64;100.00
11676;BME280;5894;42.768;23.404;2023-04-03T06:30:37;95015.72;;;6.85;100.00
11676;BME280;5894;42.768;23.404;2023-04-03T06:33:04;94990.78;;;6.74;100.00
11676;BME280;5894;42.768;23.404;2023-04-03T06:35:31;94987.78;;;6.81;100.00
11676;BME280;5894;42.768;23.404;2023-04-03T06:38:00;95043.03;;;7.25;100.00
11676;BME280;5894;42.768;23.404;2023-04-03T06:40:30;95042.22;;;7.38;100.00
11676;BME280;5894;42.768;23.404;2023-04-03T06:42:57;95036.50;;;7.36;100.00
11676;BME280;5894;42.768;23.404;2023-04-03T06:45:24;95044.84;;;7.52;100.00
11676;BME280;5894;42.768;23.404;2023-04-03T06:47:51;95057.25;;;7.74;100.00
11676;BME280;5894;42.768;23.404;2023-04-03T06:50:19;95064.91;;;7.84;100.00
11676;BME280;5894;42.768;23.404;2023-04-03T06:52:46;95057.03;;;7.84;100.00
11676;BME280;5894;42.768;23.404;2023-04-03T06:55:13;95063.19;;;8.02;100.00
11676;BME280;5894;42.768;23.404;2023-04-03T06:57:41;95048.50;;;8.01;100.00
11676;BME280;5894;42.768;23.404;2023-04-03T07:00:10;95061.19;;;8.21;100.00
11676;BME280;5894;42.768;23.404;2023-04-03T07:02:37;95058.69;;;8.16;100.00
11676;BME280;5894;42.768;23.404;2023-04-03T07:05:04;95046.25;;;8.08;100.00
11676;BME280;5894;42.768;23.404;2023-04-03T07:07:31;95072.84;;;8.29;100.00
11676;BME280;5894;42.768;23.404;2023-04-03T07:09:59;95077.69;;;8.35;100.00
11676;BME280;5894;42.768;23.404;2023-04-03T07:12:26;95079.47;;;8.26;100.00
11676;BME280;5894;42.768;23.404;2023-04-03T07:14:54;95081.09;;;8.36;100.00
11676;BME280;5894;42.768;23.404;2023-04-03T07:17:21;95081.16;;;8.44;100.00
11676;BME280;5894;42.768;23.404;2023-04-03T07:19:48;95073.94;;;8.50;100.00
11676;BME280;5894;42.768;23.404;2023-04-03T07:22:16;95045.81;;;8.51;100.00
11676;BME280;5894;42.768;23.404;2023-04-03T07:24:43;95005.44;;;8.46;100.00
11676;BME280;5894;42.768;23.404;2023-04-03T07:27:10;95054.81;;;8.80;100.00
11676;BME280;5894;42.768;23.404;2023-04-03T07:29:39;95056.97;;;8.87;100.00
11676;BME280;5894;42.768;23.404;2023-04-03T07:32:07;95065.09;;;8.99;100.00
11676;BME280;5894;42.768;23.404;2023-04-03T07:34:34;95034.03;;;8.70;100.00
11676;BME280;5894;42.768;23.404;2023-04-03T07:37:01;95057.72;;;8.79;100.00
11676;BME280;5894;42.768;23.404;2023-04-03T07:39:28;95057.59;;;8.84;100.00
11676;BME280;5894;42.768;23.404;2023-04-03T07:41:55;95050.69;;;8.97;100.00
11676;BME280;5894;42.768;23.404;2023-04-03T07:44:22;95047.75;;;8.98;100.00
11676;BME280;5894;42.768;23.404;2023-04-03T07:46:48;95035.22;;;8.95;100.00
11676;BME280;5894;42.768;23.404;2023-04-03T07:49:17;95029.69;;;9.05;100.00
11676;BME280;5894;42.768;23.404;2023-04-03T07:51:44;95045.09;;;9.29;100.00
11676;BME280;5894;42.768;23.404;2023-04-03T07:54:12;95027.00;;;9.45;100.00
11676;BME280;5894;42.768;23.404;2023-04-03T07:56:38;95027.50;;;9.55;100.00
11676;BME280;5894;42.768;23.404;2023-04-03T07:59:05;95012.34;;;9.70;100.00
11676;BME280;5894;42.768;23.404;2023-04-03T08:01:33;95017.19;;;9.85;100.00
11676;BME280;5894;42.768;23.404;2023-04-03T08:04:00;95012.03;;;9.97;100.00
11676;BME280;5894;42.768;23.404;2023-04-03T08:06:28;95010.97;;;10.15;100.00
11676;BME280;5894;42.768;23.404;2023-04-03T08:08:57;94986.81;;;10.22;100.00
11676;BME280;5894;42.768;23.404;2023-04-03T08:11:24;95004.47;;;10.30;100.00
11676;BME280;5894;42.768;23.404;2023-04-03T08:13:52;94996.41;;;10.18;100.00
11676;BME280;5894;42.768;23.404;2023-04-03T08:16:21;94946.81;;;10.03;100.00
11676;BME280;5894;42.768;23.404;2023-04-03T08:18:51;94990.19;;;10.31;100.00
11676;BME280;5894;42.768;23.404;2023-04-03T08:21:17;94967.28;;;10.14;100.00
11676;BME280;5894;42.768;23.404;2023-04-03T08:23:48;94994.53;;;10.36;100.00
11676;BME280;5894;42.768;23.404;2023-04-03T08:26:17;94979.66;;;10.14;100.00
11676;BME280;5894;42.768;23.404;2023-04-03T08:28:44;94991.59;;;10.28;100.00
11676;BME280;5894;42.768;23.404;2023-04-03T08:31:14;94984.03;;;10.27;100.00
11676;BME280;5894;42.768;23.404;2023-04-03T08:33:41;94994.09;;;10.34;100.00
11676;BME280;5894;42.768;23.404;2023-04-03T08:36:16;94990.53;;;10.38;100.00
11676;BME280;5894;42.768;23.404;2023-04-03T08:38:43;94986.47;;;10.32;100.00
11676;BME280;5894;42.768;23.404;2023-04-03T08:41:15;94995.13;;;10.50;100.00
11676;BME280;5894;42.768;23.404;2023-04-03T08:43:56;94995.75;;;10.55;100.00
11676;BME280;5894;42.768;23.404;2023-04-03T08:46:28;94958.88;;;10.29;100.00
11676;BME280;5894;42.768;23.404;2023-04-03T08:49:00;94987.69;;;10.52;100.00
11676;BME280;5894;42.768;23.404;2023-04-03T08:51:27;94980.69;;;10.56;100.00
11676;BME280;5894;42.768;23.404;2023-04-03T08:53:59;94983.47;;;10.59;100.00
11676;BME280;5894;42.768;23.404;2023-04-03T08:56:30;94971.69;;;10.65;100.00
11676;BME280;5894;42.768;23.404;2023-04-03T08:58:59;94979.03;;;10.89;100.00
11676;BME280;5894;42.768;23.404;2023-04-03T09:01:30;94938.78;;;10.63;98.55
11676;BME280;5894;42.768;23.404;2023-04-03T09:04:00;94975.84;;;11.04;99.94
11676;BME280;5894;42.768;23.404;2023-04-03T09:06:29;94963.78;;;10.95;100.00
11676;BME280;5894;42.768;23.404;2023-04-03T09:09:07;94968.41;;;11.07;100.00
11676;BME280;5894;42.768;23.404;2023-04-03T09:11:48;94942.94;;;11.11;100.00
11676;BME280;5894;42.768;23.404;2023-04-03T09:14:24;94969.03;;;11.33;99.27
11676;BME280;5894;42.768;23.404;2023-04-03T09:16:55;94863.78;;;10.81;100.00
11676;BME280;5894;42.768;23.404;2023-04-03T09:19:33;94950.16;;;11.43;100.00
11676;BME280;5894;42.768;23.404;2023-04-03T09:22:12;94955.34;;;11.60;100.00
11676;BME280;5894;42.768;23.404;2023-04-03T09:24:42;94956.31;;;11.56;100.00
11676;BME280;5894;42.768;23.404;2023-04-03T09:27:11;94950.97;;;11.64;100.00
11676;BME280;5894;42.768;23.404;2023-04-03T09:29:40;94943.00;;;11.73;100.00
11676;BME280;5894;42.768;23.404;2023-04-03T09:32:19;94917.84;;;11.67;100.00
11676;BME280;5894;42.768;23.404;2023-04-03T09:34:48;94916.19;;;11.62;99.72
11676;BME280;5894;42.768;23.404;2023-04-03T09:37:39;94815.53;;;11.01;100.00
11676;BME280;5894;42.768;23.404;2023-04-03T09:40:29;94933.06;;;11.91;100.00
11676;BME280;5894;42.768;23.404;2023-04-03T09:42:58;94929.84;;;11.85;100.00
11676;BME280;5894;42.768;23.404;2023-04-03T09:45:28;94928.16;;;12.01;98.41
11676;BME280;5894;42.768;23.404;2023-04-03T09:48:15;94929.78;;;11.94;96.00
11676;BME280;5894;42.768;23.404;2023-04-03T09:50:54;94906.75;;;11.94;97.55
11676;BME280;5894;42.768;23.404;2023-04-03T09:53:31;94908.63;;;12.15;97.01
11676;BME280;5894;42.768;23.404;2023-04-03T09:56:02;94895.41;;;12.15;95.07
11676;BME280;5894;42.768;23.404;2023-04-03T09:58:31;94915.13;;;12.29;92.37
11676;BME280;5894;42.768;23.404;2023-04-03T10:01:00;94815.56;;;11.76;90.93
11676;BME280;5894;42.768;23.404;2023-04-03T10:03:30;94905.91;;;12.35;91.71
11676;BME280;5894;42.768;23.404;2023-04-03T10:05:58;94911.41;;;12.42;90.47
11676;BME280;5894;42.768;23.404;2023-04-03T10:08:28;94910.00;;;12.45;90.23
11676;BME280;5894;42.768;23.404;2023-04-03T10:11:09;94849.34;;;12.16;88.57
11676;BME280;5894;42.768;23.404;2023-04-03T10:13:49;94902.84;;;12.45;86.35
11676;BME280;5894;42.768;23.404;2023-04-03T10:16:18;94880.03;;;12.53;88.83
11676;BME280;5894;42.768;23.404;2023-04-03T10:18:54;94895.25;;;12.68;88.43
11676;BME280;5894;42.768;23.404;2023-04-03T10:21:33;94891.28;;;12.74;88.87
11676;BME280;5894;42.768;23.404;2023-04-03T10:24:09;94890.84;;;12.84;91.48
11676;BME280;5894;42.768;23.404;2023-04-03T10:26:45;94881.69;;;12.82;89.55
11676;BME280;5894;42.768;23.404;2023-04-03T10:29:23;94898.13;;;12.75;85.46
11676;BME280;5894;42.768;23.404;2023-04-03T10:32:00;94841.22;;;12.33;82.22
11676;BME280;5894;42.768;23.404;2023-04-03T10:34:30;94834.94;;;12.37;83.75
11676;BME280;5894;42.768;23.404;2023-04-03T10:37:05;94880.47;;;12.55;84.94
11676;BME280;5894;42.768;23.404;2023-04-03T10:39:41;94874.19;;;12.72;87.44
11676;BME280;5894;42.768;23.404;2023-04-03T10:42:17;94881.69;;;12.70;90.82
11676;BME280;5894;42.768;23.404;2023-04-03T10:45:00;94865.81;;;12.58;91.33
11676;BME280;5894;42.768;23.404;2023-04-03T10:47:33;94876.84;;;12.60;91.93
11676;BME280;5894;42.768;23.404;2023-04-03T10:50:15;94869.22;;;12.58;92.15
11676;BME280;5894;42.768;23.404;2023-04-03T10:52:53;94788.97;;;12.05;91.83
11676;BME280;5894;42.768;23.404;2023-04-03T10:55:32;94741.84;;;11.83;92.84
11676;BME280;5894;42.768;23.404;2023-04-03T10:58:04;94851.59;;;12.62;93.62
11676;BME280;5894;42.768;23.404;2023-04-03T11:00:36;94859.97;;;12.64;84.13
11676;BME280;5894;42.768;23.404;2023-04-03T11:03:10;94843.22;;;12.72;87.91
11676;BME280;5894;42.768;23.404;2023-04-03T11:05:41;94855.78;;;12.75;86.54
11676;BME280;5894;42.768;23.404;2023-04-03T11:08:13;94854.25;;;12.74;87.73
11676;BME280;5894;42.768;23.404;2023-04-03T11:10:46;94848.41;;;12.69;90.24
11676;BME280;5894;42.768;23.404;2023-04-03T11:13:21;94860.75;;;12.65;92.62
11676;BME280;5894;42.768;23.404;2023-04-03T11:15:51;94849.06;;;12.54;95.01
11676;BME280;5894;42.768;23.404;2023-04-03T11:18:22;94865.81;;;12.58;96.94
11676;BME280;5894;42.768;23.404;2023-04-03T11:20:56;94858.53;;;12.42;98.61
11676;BME280;5894;42.768;23.404;2023-04-03T11:23:28;94862.84;;;12.35;99.85
11676;BME280;5894;42.768;23.404;2023-04-03T11:26:04;94868.78;;;12.32;100.00
11676;BME280;5894;42.768;23.404;2023-04-03T11:28:36;94855.63;;;12.11;100.00
11676;BME280;5894;42.768;23.404;2023-04-03T11:31:15;94869.38;;;12.17;100.00
11676;BME280;5894;42.768;23.404;2023-04-03T11:33:51;94855.81;;;12.06;100.00
11676;BME280;5894;42.768;23.404;2023-04-03T11:36:24;94866.66;;;12.13;100.00
11676;BME280;5894;42.768;23.404;2023-04-03T11:38:54;94824.72;;;11.58;100.00
11676;BME280;5894;42.768;23.404;2023-04-03T11:41:26;94829.47;;;11.64;100.00
11676;BME280;5894;42.768;23.404;2023-04-03T11:44:02;94860.16;;;11.77;100.00
11676;BME280;5894;42.768;23.404;2023-04-03T11:46:49;94861.28;;;11.68;100.00
11676;BME280;5894;42.768;23.404;2023-04-03T11:49:53;94867.81;;;11.50;100.00
11676;BME280;5894;42.768;23.404;2023-04-03T11:55:59;94815.91;;;11.00;100.00
11676;BME280;5894;42.768;23.404;2023-04-03T11:58:28;94867.56;;;11.22;100.00
11676;BME280;5894;42.768;23.404;2023-04-03T12:01:08;94846.50;;;11.13;100.00
11676;BME280;5894;42.768;23.404;2023-04-03T12:04:06;94866.16;;;11.24;100.00
11676;BME280;5894;42.768;23.404;2023-04-03T12:09:57;94809.56;;;10.92;100.00
11676;BME280;5894;42.768;23.404;2023-04-03T12:12:37;94865.91;;;11.38;100.00
11676;BME280;5894;42.768;23.404;2023-04-03T12:15:25;94867.69;;;11.46;100.00
11676;BME280;5894;42.768;23.404;2023-04-03T12:17:54;94879.81;;;11.47;100.00
11676;BME280;5894;42.768;23.404;2023-04-03T12:20:51;94867.81;;;11.50;100.00
11676;BME280;5894;42.768;23.404;2023-04-03T12:23:30;94876.53;;;11.50;100.00
11676;BME280;5894;42.768;23.404;2023-04-03T12:26:10;94872.34;;;11.49;100.00
11676;BME280;5894;42.768;23.404;2023-04-03T12:28:48;94835.72;;;11.27;100.00
11676;BME280;5894;42.768;23.404;2023-04-03T12:31:16;94845.41;;;11.35;100.00
11676;BME280;5894;42.768;23.404;2023-04-03T12:34:07;94846.78;;;11.41;100.00
11676;BME280;5894;42.768;23.404;2023-04-03T12:36:45;94849.94;;;11.34;100.00
11676;BME280;5894;42.768;23.404;2023-04-03T12:39:36;94847.81;;;11.28;100.00
11676;BME280;5894;42.768;23.404;2023-04-03T12:42:21;94839.81;;;11.16;100.00
11676;BME280;5894;42.768;23.404;2023-04-03T12:44:57;94841.69;;;11.15;100.00
11676;BME280;5894;42.768;23.404;2023-04-03T12:47:29;94814.00;;;11.00;100.00
11676;BME280;5894;42.768;23.404;2023-04-03T12:50:02;94833.25;;;11.22;100.00
11676;BME280;5894;42.768;23.404;2023-04-03T12:52:35;94821.09;;;11.09;100.00
11676;BME280;5894;42.768;23.404;2023-04-03T12:55:12;94807.91;;;10.88;100.00
11676;BME280;5894;42.768;23.404;2023-04-03T12:57:43;94824.31;;;10.93;100.00
11676;BME280;5894;42.768;23.404;2023-04-03T13:00:22;94821.97;;;10.92;100.00
11676;BME280;5894;42.768;23.404;2023-04-03T13:02:53;94818.22;;;10.72;100.00
11676;BME280;5894;42.768;23.404;2023-04-03T13:05:22;94814.63;;;10.56;100.00
11676;BME280;5894;42.768;23.404;2023-04-03T13:07:53;94805.25;;;10.38;100.00
11676;BME280;5894;42.768;23.404;2023-04-03T13:10:22;94815.34;;;10.36;100.00
11676;BME280;5894;42.768;23.404;2023-04-03T13:12:51;94811.16;;;10.35;100.00
11676;BME280;5894;42.768;23.404;2023-04-03T13:15:20;94797.72;;;10.10;100.00
11676;BME280;5894;42.768;23.404;2023-04-03T13:17:48;94820.78;;;10.30;100.00
11676;BME280;5894;42.768;23.404;2023-04-03T13:20:22;94817.41;;;10.13;100.00
11676;BME280;5894;42.768;23.404;2023-04-03T13:22:55;94811.03;;;10.22;100.00
11676;BME280;5894;42.768;23.404;2023-04-03T13:25:28;94711.19;;;9.53;100.00